Impacts METAR Board
IDs:

KTPA - Tampa Intl Arpt, FL, US

Updated at: 1900 UTC 22 Sep 2018
Potential Impact None Slight Moderate High
Time 22/07Z 22/08Z 22/09Z 22/10Z 22/11Z 22/12Z 22/13Z 22/14Z 22/15Z 22/16Z 22/17Z 22/18Z 22/19Z
Temp80 79 78 78 78 78 81 85 87 90 89 92 92
Dewpt73 73 73 72 72 73 73 73 72 71 70 69 68
Altim30.04 30.03 30.03 30.03 30.03 30.04 30.05 30.05 30.04 30.04 30.02 30.00 29.99
VIS10 10 10 10 10 10 10 10 10 10 10 10 10
CIG-- -- -- -- -- 250 -- -- 250 250 250 250 270
CoverCLRCLRCLRFEWSCTBKNSCTSCTBKNBKNBKNBKNBKN
FltCatVFRVFRVFRVFRVFRVFRVFRVFRVFRVFRVFRVFRVFR
WX--------------------------
WDir3020040404050506007070110
WSpd4 4 3 4 5 4 4 5 7 5 7 6 5
WGst-- -- -- -- -- -- -- -- -- -- -- -- --
Raw hourly METARs
KTPA 220653Z 03004KT 10SM CLR 27/23 A3004 RMK AO2 SLP171 T02670228
KTPA 220753Z 02004KT 10SM CLR 26/23 A3003 RMK AO2 SLP167 T02610228
KTPA 220853Z VRB03KT 10SM CLR 26/23 A3003 RMK AO2 SLP168 T02560228 55010
KTPA 220953Z 04004KT 10SM FEW035 26/22 A3003 RMK AO2 SLP168 OCNL LTGIC DSNT W CB DSNT W T02560222
KTPA 221053Z 04005KT 10SM FEW035 SCT120 26/22 A3003 RMK AO2 SLP167 OCNL LTGIC DSNT SW-W CB DSNT SW-W T02560222
KTPA 221153Z 04004KT 10SM FEW035 SCT100 BKN250 26/23 A3004 RMK AO2 SLP171 CB DSNT SW 70080 T02560228 10267 20256 53004
KTPA 221253Z 05004KT 10SM FEW035 SCT250 27/23 A3005 RMK AO2 SLP175 CB DSNT S-SW T02720228
KTPA 221353Z 05005KT 10SM FEW035 FEW110 SCT250 29/23 A3005 RMK AO2 SLP176 T02940228
KTPA 221453Z 06007KT 10SM FEW033 FEW110 BKN250 31/22 A3004 RMK AO2 SLP173 T03060222 50002
KTPA 221553Z VRB05KT 10SM SCT030 SCT120 BKN250 32/22 A3004 RMK AO2 SLP171 T03220217
KTPA 221653Z 07007KT 10SM SCT036 SCT150 BKN250 32/21 A3002 RMK AO2 SLP165 T03170211
KTPA 221753Z 07006KT 10SM SCT040 SCT140 BKN250 33/21 A3000 RMK AO2 SLP159 T03330206 10333 20256 58014
KTPA 221853Z 11005KT 10SM SCT047 BKN270 33/20 A2999 RMK AO2 SLP153 T03330200



Page loaded:  19:12 UTC  |   12:12 PM Pacific  |   01:12 PM Mountain  |   02:12 PM Central  |   03:12 PM Eastern

 

ADVISORIES

FORECASTS

FORECASTS

OBSERVATIONS

USER TOOLS

ABOUT US